06h50 EDT


 

Suivi/Infos de l'aéroport


-ou-


 

Suivi des vols en temps réel9Y-TTC ✈ 01-05-2013 ✈ TTCP / TAB - TTPP / POS

Thumbnail
9Y-TTC / BWA1541
Unknown Owner · Trinidad & Tobago
Crown Point ( – info)
Scarborough, Tobago TT
Piarco Int'l ( – info)
Port-d'Espagne TT
Prévu: 21h45 AST
Prévu: 21h50 AST
Durée: 18 minutes
mercredi, 1 mai 2013
Statut Arrivé il y a plus d'un an. (journal de vol & graphique)
Avion Aerospatiale ATR-42-300 (bi-turbopropulseur) (AT43 – photos)
Vitesse Plan de vol: 532 kts (graphique)
Distance En ligne droite 83 km
Une partie au moins de ce vol se déroule hors de la zone de services primaire de FlightAware. Pour en savoir plus sur la couverture et la zone de services de FlightAware.
JOURNAL DE L'ACTIVITE
Vous voulez une recherche complète sur l'historique de 9Y-TTC depuis 1998? Achetez maintenant. Recevez-le dans l'heure.
Date Avion Provenance Destination Départ Arrivée Durée
31-10-2014 AT72Piarco Int'l ()Crown Point () 06h13 AST 06h28 AST (?) 0:15
30-10-2014 AT72Crown Point ()Piarco Int'l () 20h37 AST 20h58 AST 0:21
30-10-2014 AT72Piarco Int'l ()Crown Point () 19h47 AST 20h05 AST 0:18
30-10-2014 AT72Crown Point ()Piarco Int'l () 18h47 AST 19h04 AST 0:17
30-10-2014 AT72Piarco Int'l ()Crown Point () 18h01 AST 18h15 AST 0:13
30-10-2014 AT72George F. L. Charles ()Piarco Int'l () 15h38 AST 16h34 AST 0:56
30-10-2014 AT72Piarco Int'l ()George F. L. Charles () 14h12 AST 15h10 AST 0:57
30-10-2014 AT72Crown Point ()Piarco Int'l () 12h43 AST 13h01 AST 0:18
30-10-2014 AT72Piarco Int'l ()Crown Point () 11h49 AST 12h02 AST 0:12
30-10-2014 AT72Crown Point ()Piarco Int'l () 06h48 AST 07h07 AST 0:19
30-10-2014 AT72Piarco Int'l ()Crown Point () 05h53 AST 06h08 AST 0:15
30-10-2014 AT72Crown Point ()Piarco Int'l () 01h38 AST 01h54 AST 0:16
30-10-2014 AT72Piarco Int'l ()Crown Point () 00h50 AST 01h08 AST 0:18
29-10-2014 AT72Crown Point ()Piarco Int'l () 23h41 AST 23h57 AST 0:16
29-10-2014 AT72Piarco Int'l ()Crown Point () 22h52 AST 23h07 AST 0:14
29-10-2014 AT72Crown Point ()Piarco Int'l () 21h48 AST 22h07 AST 0:18
29-10-2014 AT72Piarco Int'l ()Crown Point () 20h46 AST 20h59 AST 0:12
29-10-2014 AT72Crown Point ()Piarco Int'l () 19h23 AST 19h39 AST 0:16
29-10-2014 AT72Piarco Int'l ()Crown Point () 18h20 AST 18h35 AST 0:14
29-10-2014 AT72Crown Point ()Piarco Int'l () 17h20 AST 17h36 AST 0:16
29-10-2014 AT72Piarco Int'l ()Crown Point () 16h26 AST 16h41 AST 0:14
29-10-2014 AT72Crown Point ()Piarco Int'l () 15h18 AST 15h35 AST 0:17
29-10-2014 AT72Piarco Int'l ()Crown Point () 14h24 AST 14h38 AST 0:13
29-10-2014 AT72Crown Point ()Piarco Int'l () 13h07 AST 13h23 AST 0:16
29-10-2014 AT72Piarco Int'l ()Crown Point () 12h19 AST 12h32 AST 0:12
29-10-2014 AT72Crown Point ()Piarco Int'l () 11h23 AST 11h40 AST 0:17
29-10-2014 AT72Piarco Int'l ()Crown Point () 10h38 AST 10h54 AST 0:16
29-10-2014 AT72Crown Point ()Piarco Int'l () 09h22 AST 09h36 AST 0:13
29-10-2014 AT72Piarco Int'l ()Crown Point () 08h25 AST 08h41 AST 0:15
29-10-2014 AT72Crown Point ()Piarco Int'l () 07h20 AST 07h40 AST 0:20
29-10-2014 AT72Piarco Int'l ()Crown Point () 06h37 AST 06h51 AST 0:13
28-10-2014 AT72Int'l Grantley-Adams ()Piarco Int'l () 20h56 AST 21h50 AST 0:53
28-10-2014 AT72Piarco Int'l ()Int'l Grantley-Adams () 19h29 AST 20h19 AST 0:50
28-10-2014 AT72Crown Point ()Piarco Int'l () 16h26 AST 16h45 AST 0:19
28-10-2014 AT72Piarco Int'l ()Crown Point () 15h39 AST 15h54 AST 0:14
28-10-2014 AT72Crown Point ()Piarco Int'l () 14h45 AST 15h04 AST 0:19
28-10-2014 AT72Piarco Int'l ()Crown Point () 13h31 AST 13h48 AST 0:17
28-10-2014 AT72Crown Point ()Piarco Int'l () 10h07 AST 10h27 AST 0:20
28-10-2014 AT72Piarco Int'l ()Crown Point () 09h17 AST 09h31 AST 0:13
28-10-2014 AT43Int'l Grantley-Adams ()Piarco Int'l () 07h18 AST 08h09 AST 0:51
28-10-2014 AT72Piarco Int'l ()Int'l Grantley-Adams () 05h55 AST 06h42 AST 0:47
27-10-2014 AT72Crown Point ()Piarco Int'l () 20h35 AST 20h48 AST 0:12
27-10-2014 AT72Piarco Int'l ()Crown Point () 19h40 AST 19h53 AST 0:12
27-10-2014 AT72Crown Point ()Piarco Int'l () 18h38 AST 18h56 AST 0:18
27-10-2014 AT72Piarco Int'l ()Crown Point () 17h39 AST 17h52 AST 0:12
27-10-2014 AT72George F. L. Charles ()Piarco Int'l () 15h28 AST 16h28 AST 1:00
27-10-2014 AT72Piarco Int'l ()George F. L. Charles () 13h56 AST 14h51 AST 0:54
27-10-2014 AT72Crown Point ()Piarco Int'l () 12h10 AST 12h26 AST 0:16
27-10-2014 AT72Piarco Int'l ()Crown Point () 11h17 AST 11h32 AST 0:14
27-10-2014 AT72Crown Point ()Piarco Int'l () 10h15 AST 10h37 AST 0:22
27-10-2014 AT72Piarco Int'l ()Crown Point () 09h18 AST 09h32 AST 0:13
27-10-2014 AT72Int'l Grantley-Adams ()Piarco Int'l () 07h36 AST 08h28 AST 0:52
27-10-2014 AT72Piarco Int'l ()Int'l Grantley-Adams () 05h51 AST 06h43 AST 0:51
26-10-2014 AT72Int'l Grantley-Adams ()Piarco Int'l () 20h57 AST 21h54 AST 0:56
26-10-2014 AT72Piarco Int'l ()Int'l Grantley-Adams () 19h24 AST 20h16 AST 0:51
26-10-2014 AT72Crown Point ()Piarco Int'l () 16h38 AST 16h53 AST 0:15
26-10-2014 AT72Piarco Int'l ()Crown Point () 15h50 AST 16h04 AST 0:13
26-10-2014 AT72Crown Point ()Piarco Int'l () 14h50 AST 15h09 AST 0:19
26-10-2014 AT72Piarco Int'l ()Crown Point () 13h45 AST 14h02 AST 0:16
26-10-2014 AT72Crown Point ()Piarco Int'l () 12h29 AST 12h47 AST 0:18
26-10-2014 AT72Piarco Int'l ()Crown Point () 11h45 AST 11h59 AST 0:13
26-10-2014 AT72Crown Point ()Piarco Int'l () 10h47 AST 11h02 AST 0:15
26-10-2014 AT72Piarco Int'l ()Crown Point () 10h03 AST 10h17 AST 0:13
26-10-2014 AT72Int'l Grantley-Adams ()Piarco Int'l () 07h52 AST 08h57 AST 1:05
26-10-2014 AT72Piarco Int'l ()Int'l Grantley-Adams () 06h10 AST 07h00 AST 0:50
25-10-2014 AT72Int'l Grantley-Adams ()Piarco Int'l () 20h51 AST 21h42 AST 0:51
25-10-2014 AT72Piarco Int'l ()Int'l Grantley-Adams () 19h25 AST 20h14 AST 0:49
25-10-2014 AT72Crown Point ()Piarco Int'l () 16h36 AST 16h55 AST 0:19
25-10-2014 AT72Piarco Int'l ()Crown Point () 15h46 AST 16h00 AST 0:13
25-10-2014 AT72Crown Point ()Piarco Int'l () 14h47 AST 15h07 AST 0:20
25-10-2014 AT72Piarco Int'l ()Crown Point () 13h46 AST 14h01 AST 0:14
25-10-2014 AT72Crown Point ()Piarco Int'l () 12h18 AST 12h29 AST 0:10
25-10-2014 AT72Piarco Int'l ()Crown Point () 11h22 AST 11h36 AST 0:13
25-10-2014 AT72Crown Point ()Piarco Int'l () 10h03 AST 10h26 AST 0:23
25-10-2014 AT72Piarco Int'l ()Crown Point () 09h17 AST 09h32 AST 0:14
25-10-2014 AT72Int'l Grantley-Adams ()Piarco Int'l () 07h14 AST 08h06 AST 0:51
25-10-2014 AT72Piarco Int'l ()Int'l Grantley-Adams () 05h53 AST 06h41 AST 0:48
25-10-2014 AT72Crown Point ()Piarco Int'l () 00h26 AST 00h43 AST 0:17
24-10-2014 AT72Piarco Int'l ()Crown Point () 23h37 AST 23h53 AST 0:16
24-10-2014 AT72Int'l Grantley-Adams ()Piarco Int'l () 20h46 AST 21h35 AST 0:49
24-10-2014 AT72Piarco Int'l ()Int'l Grantley-Adams () 19h10 AST 20h02 AST 0:52
24-10-2014 AT72Crown Point ()Piarco Int'l () 17h28 AST 17h49 AST 0:21
24-10-2014 AT72Piarco Int'l ()Crown Point () 16h36 AST 16h51 AST 0:14
24-10-2014 AT72Crown Point ()Piarco Int'l () 15h44 AST 15h58 AST 0:13
24-10-2014 AT72Piarco Int'l ()Crown Point () 14h46 AST 15h01 AST 0:14
24-10-2014 AT72Crown Point ()Piarco Int'l () 13h19 AST 13h38 AST 0:19
24-10-2014 AT72Piarco Int'l ()Crown Point () 12h24 AST 12h41 AST 0:17
24-10-2014 AT72Crown Point ()Piarco Int'l () 11h00 AST 11h17 AST 0:17
24-10-2014 AT72Piarco Int'l ()Crown Point () 10h02 AST 10h18 AST 0:16
24-10-2014 AT72Point Salines Int'l ()Piarco Int'l () 08h07 AST 08h32 AST 0:25
24-10-2014 AT72Piarco Int'l ()Point Salines Int'l () 06h58 AST 07h29 AST 0:30
23-10-2014 AT72Int'l Grantley-Adams ()Piarco Int'l () 21h08 AST 22h02 AST 0:54
23-10-2014 AT72Piarco Int'l ()Int'l Grantley-Adams () 19h28 AST 20h23 AST 0:55
23-10-2014 AT72Crown Point ()Piarco Int'l () 16h18 AST 16h29 AST 0:11
23-10-2014 AT72Piarco Int'l ()Crown Point () 15h31 AST 15h44 AST 0:12
23-10-2014 AT72Crown Point ()Piarco Int'l () 14h31 AST 14h50 AST 0:19
23-10-2014 AT72Piarco Int'l ()Crown Point () 13h33 AST 13h50 AST 0:17
23-10-2014 AT43Int'l Grantley-Adams ()Piarco Int'l () 07h49 AST 08h53 AST 1:03
23-10-2014 AT72Piarco Int'l ()Int'l Grantley-Adams () 06h01 AST 07h00 AST 0:59
Les membres inscrits (l'inscription est gratuite et facile!) voient 4 months d'historique. S'inscrire